sensor_id;sensor_type;location;lat;lon;timestamp;P1;durP1;ratioP1;P2;durP2;ratioP2
30127;SDS011;16942;53.196;6.592;2023-02-28T00:00:03;9.63;;;2.70;;
30127;SDS011;16942;53.196;6.592;2023-02-28T00:02:41;7.47;;;2.80;;
30127;SDS011;16942;53.196;6.592;2023-02-28T00:05:08;9.43;;;2.57;;
30127;SDS011;16942;53.196;6.592;2023-02-28T00:07:35;7.70;;;2.60;;
30127;SDS011;16942;53.196;6.592;2023-02-28T00:10:01;6.70;;;2.73;;
30127;SDS011;16942;53.196;6.592;2023-02-28T00:12:27;6.57;;;2.77;;
30127;SDS011;16942;53.196;6.592;2023-02-28T00:14:53;7.80;;;2.77;;
30127;SDS011;16942;53.196;6.592;2023-02-28T00:17:19;4.97;;;2.67;;
30127;SDS011;16942;53.196;6.592;2023-02-28T00:19:50;6.97;;;2.90;;
30127;SDS011;16942;53.196;6.592;2023-02-28T00:22:17;5.17;;;2.80;;
30127;SDS011;16942;53.196;6.592;2023-02-28T00:24:43;7.53;;;2.90;;
30127;SDS011;16942;53.196;6.592;2023-02-28T00:27:09;9.43;;;2.83;;
30127;SDS011;16942;53.196;6.592;2023-02-28T00:29:36;13.13;;;3.27;;
30127;SDS011;16942;53.196;6.592;2023-02-28T00:32:02;6.03;;;3.00;;
30127;SDS011;16942;53.196;6.592;2023-02-28T00:34:28;9.10;;;2.77;;
30127;SDS011;16942;53.196;6.592;2023-02-28T00:36:54;6.07;;;2.13;;
30127;SDS011;16942;53.196;6.592;2023-02-28T00:39:20;6.63;;;3.10;;
30127;SDS011;16942;53.196;6.592;2023-02-28T00:41:46;8.00;;;2.93;;
30127;SDS011;16942;53.196;6.592;2023-02-28T00:44:12;6.30;;;3.13;;
30127;SDS011;16942;53.196;6.592;2023-02-28T00:46:38;8.67;;;3.10;;
30127;SDS011;16942;53.196;6.592;2023-02-28T00:49:04;7.53;;;3.87;;
30127;SDS011;16942;53.196;6.592;2023-02-28T00:51:30;6.53;;;3.23;;
30127;SDS011;16942;53.196;6.592;2023-02-28T00:53:56;8.13;;;3.07;;
30127;SDS011;16942;53.196;6.592;2023-02-28T00:56:22;5.87;;;3.10;;
30127;SDS011;16942;53.196;6.592;2023-02-28T00:58:48;5.77;;;2.80;;
30127;SDS011;16942;53.196;6.592;2023-02-28T01:01:15;7.33;;;3.10;;
30127;SDS011;16942;53.196;6.592;2023-02-28T01:03:41;7.93;;;2.80;;
30127;SDS011;16942;53.196;6.592;2023-02-28T01:06:07;8.77;;;3.00;;
30127;SDS011;16942;53.196;6.592;2023-02-28T01:08:33;6.60;;;3.03;;
30127;SDS011;16942;53.196;6.592;2023-02-28T01:11:06;8.20;;;3.07;;
30127;SDS011;16942;53.196;6.592;2023-02-28T01:13:32;7.90;;;3.30;;
30127;SDS011;16942;53.196;6.592;2023-02-28T01:15:58;8.10;;;2.90;;
30127;SDS011;16942;53.196;6.592;2023-02-28T01:18:24;6.23;;;3.00;;
30127;SDS011;16942;53.196;6.592;2023-02-28T01:20:51;7.10;;;2.90;;
30127;SDS011;16942;53.196;6.592;2023-02-28T01:23:18;3.63;;;2.63;;
30127;SDS011;16942;53.196;6.592;2023-02-28T01:25:44;7.60;;;3.10;;
30127;SDS011;16942;53.196;6.592;2023-02-28T01:28:10;6.13;;;3.00;;
30127;SDS011;16942;53.196;6.592;2023-02-28T01:30:36;7.20;;;3.37;;
30127;SDS011;16942;53.196;6.592;2023-02-28T01:33:02;6.67;;;2.87;;
30127;SDS011;16942;53.196;6.592;2023-02-28T01:35:31;5.10;;;2.70;;
30127;SDS011;16942;53.196;6.592;2023-02-28T01:37:57;8.17;;;2.90;;
30127;SDS011;16942;53.196;6.592;2023-02-28T01:40:23;4.97;;;3.27;;
30127;SDS011;16942;53.196;6.592;2023-02-28T01:42:49;7.63;;;3.20;;
30127;SDS011;16942;53.196;6.592;2023-02-28T01:45:23;6.07;;;3.10;;
30127;SDS011;16942;53.196;6.592;2023-02-28T01:47:51;4.53;;;3.10;;
30127;SDS011;16942;53.196;6.592;2023-02-28T01:50:19;7.90;;;3.23;;
30127;SDS011;16942;53.196;6.592;2023-02-28T01:52:46;7.87;;;3.40;;
30127;SDS011;16942;53.196;6.592;2023-02-28T01:55:13;8.93;;;3.70;;
30127;SDS011;16942;53.196;6.592;2023-02-28T01:57:41;4.60;;;3.67;;
30127;SDS011;16942;53.196;6.592;2023-02-28T02:00:18;8.57;;;3.47;;
30127;SDS011;16942;53.196;6.592;2023-02-28T02:02:46;8.27;;;3.93;;
30127;SDS011;16942;53.196;6.592;2023-02-28T02:05:31;7.03;;;3.90;;
30127;SDS011;16942;53.196;6.592;2023-02-28T02:08:02;6.80;;;4.30;;
30127;SDS011;16942;53.196;6.592;2023-02-28T02:10:31;9.90;;;4.63;;
30127;SDS011;16942;53.196;6.592;2023-02-28T02:15:35;9.93;;;4.83;;
30127;SDS011;16942;53.196;6.592;2023-02-28T02:18:27;5.53;;;4.17;;
30127;SDS011;16942;53.196;6.592;2023-02-28T02:21:00;11.87;;;4.27;;
30127;SDS011;16942;53.196;6.592;2023-02-28T02:25:58;9.80;;;4.50;;
30127;SDS011;16942;53.196;6.592;2023-02-28T02:28:40;10.13;;;4.90;;
30127;SDS011;16942;53.196;6.592;2023-02-28T02:36:16;8.37;;;4.43;;
30127;SDS011;16942;53.196;6.592;2023-02-28T02:38:59;6.83;;;4.13;;
30127;SDS011;16942;53.196;6.592;2023-02-28T02:41:31;10.93;;;4.63;;
30127;SDS011;16942;53.196;6.592;2023-02-28T02:44:11;10.30;;;4.97;;
30127;SDS011;16942;53.196;6.592;2023-02-28T02:46:43;13.03;;;4.90;;
30127;SDS011;16942;53.196;6.592;2023-02-28T02:49:11;9.47;;;4.43;;
30127;SDS011;16942;53.196;6.592;2023-02-28T02:51:38;10.13;;;4.43;;
30127;SDS011;16942;53.196;6.592;2023-02-28T02:57:06;9.83;;;4.23;;
30127;SDS011;16942;53.196;6.592;2023-02-28T02:59:33;7.33;;;3.90;;
30127;SDS011;16942;53.196;6.592;2023-02-28T03:02:01;11.23;;;4.83;;
30127;SDS011;16942;53.196;6.592;2023-02-28T03:04:30;12.33;;;4.77;;
30127;SDS011;16942;53.196;6.592;2023-02-28T03:06:58;5.87;;;4.00;;
30127;SDS011;16942;53.196;6.592;2023-02-28T03:09:24;15.60;;;5.50;;
30127;SDS011;16942;53.196;6.592;2023-02-28T03:11:51;13.00;;;4.73;;
30127;SDS011;16942;53.196;6.592;2023-02-28T03:17:10;5.87;;;4.33;;
30127;SDS011;16942;53.196;6.592;2023-02-28T03:27:24;11.00;;;6.07;;
30127;SDS011;16942;53.196;6.592;2023-02-28T03:30:33;8.10;;;6.07;;
30127;SDS011;16942;53.196;6.592;2023-02-28T03:32:40;11.43;;;5.77;;
30127;SDS011;16942;53.196;6.592;2023-02-28T03:35:10;15.77;;;6.60;;
30127;SDS011;16942;53.196;6.592;2023-02-28T03:37:40;11.73;;;6.30;;
30127;SDS011;16942;53.196;6.592;2023-02-28T03:40:14;9.53;;;5.73;;
30127;SDS011;16942;53.196;6.592;2023-02-28T03:42:43;12.73;;;6.90;;
30127;SDS011;16942;53.196;6.592;2023-02-28T03:45:15;9.57;;;5.73;;
30127;SDS011;16942;53.196;6.592;2023-02-28T03:47:45;6.80;;;5.57;;
30127;SDS011;16942;53.196;6.592;2023-02-28T03:50:15;11.37;;;5.70;;
30127;SDS011;16942;53.196;6.592;2023-02-28T03:52:44;12.93;;;5.20;;
30127;SDS011;16942;53.196;6.592;2023-02-28T03:55:13;11.90;;;5.20;;
30127;SDS011;16942;53.196;6.592;2023-02-28T04:00:12;9.70;;;5.00;;
30127;SDS011;16942;53.196;6.592;2023-02-28T04:02:40;9.57;;;5.23;;
30127;SDS011;16942;53.196;6.592;2023-02-28T04:05:06;9.73;;;5.33;;
30127;SDS011;16942;53.196;6.592;2023-02-28T04:07:32;12.50;;;5.87;;
30127;SDS011;16942;53.196;6.592;2023-02-28T04:09:59;9.83;;;5.37;;
30127;SDS011;16942;53.196;6.592;2023-02-28T04:12:25;9.53;;;5.50;;
30127;SDS011;16942;53.196;6.592;2023-02-28T04:14:51;9.17;;;5.37;;
30127;SDS011;16942;53.196;6.592;2023-02-28T04:17:17;9.07;;;4.97;;
30127;SDS011;16942;53.196;6.592;2023-02-28T04:19:43;6.60;;;4.80;;
30127;SDS011;16942;53.196;6.592;2023-02-28T04:22:10;8.13;;;4.83;;
30127;SDS011;16942;53.196;6.592;2023-02-28T04:24:36;5.63;;;4.40;;
30127;SDS011;16942;53.196;6.592;2023-02-28T04:27:06;6.87;;;5.07;;
30127;SDS011;16942;53.196;6.592;2023-02-28T04:29:32;6.67;;;4.83;;
30127;SDS011;16942;53.196;6.592;2023-02-28T04:31:58;6.23;;;4.10;;
30127;SDS011;16942;53.196;6.592;2023-02-28T04:34:25;5.60;;;3.83;;
30127;SDS011;16942;53.196;6.592;2023-02-28T04:36:52;6.57;;;4.33;;
30127;SDS011;16942;53.196;6.592;2023-02-28T04:39:21;8.70;;;4.40;;
30127;SDS011;16942;53.196;6.592;2023-02-28T04:41:47;8.20;;;4.40;;
30127;SDS011;16942;53.196;6.592;2023-02-28T04:44:14;7.43;;;4.37;;
30127;SDS011;16942;53.196;6.592;2023-02-28T04:46:40;6.77;;;4.07;;
30127;SDS011;16942;53.196;6.592;2023-02-28T04:49:07;6.10;;;4.47;;
30127;SDS011;16942;53.196;6.592;2023-02-28T04:51:34;7.93;;;4.30;;
30127;SDS011;16942;53.196;6.592;2023-02-28T04:54:00;8.20;;;4.10;;
30127;SDS011;16942;53.196;6.592;2023-02-28T04:56:26;9.00;;;4.00;;
30127;SDS011;16942;53.196;6.592;2023-02-28T04:58:52;7.30;;;4.13;;
30127;SDS011;16942;53.196;6.592;2023-02-28T05:03:47;7.37;;;4.10;;
30127;SDS011;16942;53.196;6.592;2023-02-28T05:06:14;7.17;;;3.93;;
30127;SDS011;16942;53.196;6.592;2023-02-28T05:08:40;9.97;;;4.17;;
30127;SDS011;16942;53.196;6.592;2023-02-28T05:11:07;10.53;;;4.30;;
30127;SDS011;16942;53.196;6.592;2023-02-28T05:13:38;8.07;;;4.50;;
30127;SDS011;16942;53.196;6.592;2023-02-28T05:16:04;8.73;;;4.93;;
30127;SDS011;16942;53.196;6.592;2023-02-28T05:18:30;11.10;;;5.17;;
30127;SDS011;16942;53.196;6.592;2023-02-28T05:20:56;6.97;;;4.73;;
30127;SDS011;16942;53.196;6.592;2023-02-28T05:23:23;10.07;;;4.83;;
30127;SDS011;16942;53.196;6.592;2023-02-28T05:25:49;8.00;;;4.67;;
30127;SDS011;16942;53.196;6.592;2023-02-28T05:28:16;9.77;;;5.40;;
30127;SDS011;16942;53.196;6.592;2023-02-28T05:30:42;11.17;;;5.80;;
30127;SDS011;16942;53.196;6.592;2023-02-28T05:33:10;12.47;;;6.00;;
30127;SDS011;16942;53.196;6.592;2023-02-28T05:35:37;8.83;;;5.63;;
30127;SDS011;16942;53.196;6.592;2023-02-28T05:38:03;7.83;;;5.40;;
30127;SDS011;16942;53.196;6.592;2023-02-28T05:40:29;9.87;;;5.77;;
30127;SDS011;16942;53.196;6.592;2023-02-28T05:42:56;11.60;;;5.87;;
30127;SDS011;16942;53.196;6.592;2023-02-28T05:45:22;13.00;;;6.07;;
30127;SDS011;16942;53.196;6.592;2023-02-28T05:47:48;11.80;;;6.37;;
30127;SDS011;16942;53.196;6.592;2023-02-28T05:50:14;11.57;;;5.97;;
30127;SDS011;16942;53.196;6.592;2023-02-28T05:52:40;12.70;;;6.10;;
30127;SDS011;16942;53.196;6.592;2023-02-28T05:55:06;11.80;;;6.23;;
30127;SDS011;16942;53.196;6.592;2023-02-28T05:57:32;10.77;;;6.20;;
30127;SDS011;16942;53.196;6.592;2023-02-28T05:59:58;9.77;;;5.77;;
30127;SDS011;16942;53.196;6.592;2023-02-28T06:02:24;13.00;;;6.80;;
30127;SDS011;16942;53.196;6.592;2023-02-28T06:04:50;11.23;;;5.93;;
30127;SDS011;16942;53.196;6.592;2023-02-28T06:07:16;10.93;;;5.77;;
30127;SDS011;16942;53.196;6.592;2023-02-28T06:09:42;10.33;;;6.10;;
30127;SDS011;16942;53.196;6.592;2023-02-28T06:12:09;10.27;;;6.13;;
30127;SDS011;16942;53.196;6.592;2023-02-28T06:14:36;11.57;;;5.90;;
30127;SDS011;16942;53.196;6.592;2023-02-28T06:17:02;9.07;;;6.53;;
30127;SDS011;16942;53.196;6.592;2023-02-28T06:19:28;12.53;;;6.50;;
30127;SDS011;16942;53.196;6.592;2023-02-28T06:21:55;10.70;;;6.80;;
30127;SDS011;16942;53.196;6.592;2023-02-28T06:24:23;11.67;;;7.43;;
30127;SDS011;16942;53.196;6.592;2023-02-28T06:26:49;11.50;;;7.20;;
30127;SDS011;16942;53.196;6.592;2023-02-28T06:29:15;11.67;;;6.80;;
30127;SDS011;16942;53.196;6.592;2023-02-28T06:31:43;12.77;;;7.50;;
30127;SDS011;16942;53.196;6.592;2023-02-28T06:34:09;12.80;;;7.23;;
30127;SDS011;16942;53.196;6.592;2023-02-28T06:36:37;13.67;;;6.93;;
30127;SDS011;16942;53.196;6.592;2023-02-28T06:39:03;11.93;;;6.93;;
30127;SDS011;16942;53.196;6.592;2023-02-28T06:41:29;13.07;;;7.17;;
30127;SDS011;16942;53.196;6.592;2023-02-28T06:43:55;10.53;;;6.67;;
30127;SDS011;16942;53.196;6.592;2023-02-28T06:46:21;12.27;;;7.30;;
30127;SDS011;16942;53.196;6.592;2023-02-28T06:48:48;12.53;;;7.27;;
30127;SDS011;16942;53.196;6.592;2023-02-28T06:51:15;12.93;;;7.30;;
30127;SDS011;16942;53.196;6.592;2023-02-28T06:53:42;13.90;;;7.13;;
30127;SDS011;16942;53.196;6.592;2023-02-28T06:56:12;13.47;;;7.63;;
30127;SDS011;16942;53.196;6.592;2023-02-28T06:58:38;15.67;;;7.70;;
30127;SDS011;16942;53.196;6.592;2023-02-28T07:01:05;16.07;;;7.87;;
30127;SDS011;16942;53.196;6.592;2023-02-28T07:03:31;11.43;;;7.30;;
30127;SDS011;16942;53.196;6.592;2023-02-28T07:05:57;16.17;;;8.67;;
30127;SDS011;16942;53.196;6.592;2023-02-28T07:08:24;14.97;;;9.00;;
30127;SDS011;16942;53.196;6.592;2023-02-28T07:10:53;13.70;;;8.03;;
30127;SDS011;16942;53.196;6.592;2023-02-28T07:13:20;23.63;;;10.87;;
30127;SDS011;16942;53.196;6.592;2023-02-28T07:15:56;17.53;;;9.07;;
30127;SDS011;16942;53.196;6.592;2023-02-28T07:18:23;18.67;;;9.43;;
30127;SDS011;16942;53.196;6.592;2023-02-28T07:20:49;13.30;;;7.87;;
30127;SDS011;16942;53.196;6.592;2023-02-28T07:23:15;17.53;;;8.20;;
30127;SDS011;16942;53.196;6.592;2023-02-28T07:25:41;15.70;;;8.87;;
30127;SDS011;16942;53.196;6.592;2023-02-28T07:28:08;18.33;;;8.13;;
30127;SDS011;16942;53.196;6.592;2023-02-28T07:30:37;14.63;;;7.27;;
30127;SDS011;16942;53.196;6.592;2023-02-28T07:33:03;16.07;;;9.07;;
30127;SDS011;16942;53.196;6.592;2023-02-28T07:35:30;14.33;;;8.03;;
30127;SDS011;16942;53.196;6.592;2023-02-28T07:37:59;13.40;;;8.70;;
30127;SDS011;16942;53.196;6.592;2023-02-28T07:40:25;20.33;;;8.60;;
30127;SDS011;16942;53.196;6.592;2023-02-28T07:42:52;14.43;;;8.30;;
30127;SDS011;16942;53.196;6.592;2023-02-28T07:45:18;16.40;;;8.20;;
30127;SDS011;16942;53.196;6.592;2023-02-28T07:47:44;14.03;;;8.80;;
30127;SDS011;16942;53.196;6.592;2023-02-28T07:50:11;16.40;;;9.00;;
30127;SDS011;16942;53.196;6.592;2023-02-28T07:52:37;13.27;;;8.03;;
30127;SDS011;16942;53.196;6.592;2023-02-28T07:55:05;15.27;;;8.87;;
30127;SDS011;16942;53.196;6.592;2023-02-28T07:57:31;14.60;;;8.77;;
30127;SDS011;16942;53.196;6.592;2023-02-28T07:59:57;14.53;;;8.37;;
30127;SDS011;16942;53.196;6.592;2023-02-28T08:02:23;18.43;;;9.20;;
30127;SDS011;16942;53.196;6.592;2023-02-28T08:04:49;17.43;;;9.07;;
30127;SDS011;16942;53.196;6.592;2023-02-28T08:07:15;16.00;;;8.97;;
30127;SDS011;16942;53.196;6.592;2023-02-28T08:09:42;15.00;;;8.07;;
30127;SDS011;16942;53.196;6.592;2023-02-28T08:12:09;11.80;;;7.17;;
30127;SDS011;16942;53.196;6.592;2023-02-28T08:14:35;12.63;;;7.57;;
30127;SDS011;16942;53.196;6.592;2023-02-28T08:17:02;17.43;;;8.70;;
30127;SDS011;16942;53.196;6.592;2023-02-28T08:19:28;15.53;;;7.80;;
30127;SDS011;16942;53.196;6.592;2023-02-28T08:21:54;16.30;;;7.37;;
30127;SDS011;16942;53.196;6.592;2023-02-28T08:24:20;13.93;;;8.20;;
30127;SDS011;16942;53.196;6.592;2023-02-28T08:26:46;14.67;;;8.27;;
30127;SDS011;16942;53.196;6.592;2023-02-28T08:29:12;12.97;;;7.90;;
30127;SDS011;16942;53.196;6.592;2023-02-28T08:31:38;15.33;;;8.43;;
30127;SDS011;16942;53.196;6.592;2023-02-28T08:34:14;13.43;;;7.60;;
30127;SDS011;16942;53.196;6.592;2023-02-28T08:36:40;12.80;;;8.10;;
30127;SDS011;16942;53.196;6.592;2023-02-28T08:39:09;14.97;;;7.77;;
30127;SDS011;16942;53.196;6.592;2023-02-28T08:41:35;12.17;;;7.63;;
30127;SDS011;16942;53.196;6.592;2023-02-28T08:44:01;14.43;;;8.00;;
30127;SDS011;16942;53.196;6.592;2023-02-28T08:46:27;15.60;;;8.20;;
30127;SDS011;16942;53.196;6.592;2023-02-28T08:49:02;12.83;;;8.00;;
30127;SDS011;16942;53.196;6.592;2023-02-28T08:51:32;14.53;;;8.20;;
30127;SDS011;16942;53.196;6.592;2023-02-28T08:53:58;13.90;;;8.40;;
30127;SDS011;16942;53.196;6.592;2023-02-28T08:56:25;13.97;;;8.23;;
30127;SDS011;16942;53.196;6.592;2023-02-28T08:58:53;13.80;;;7.90;;
30127;SDS011;16942;53.196;6.592;2023-02-28T09:01:21;16.73;;;8.43;;
30127;SDS011;16942;53.196;6.592;2023-02-28T09:03:48;15.80;;;8.20;;
30127;SDS011;16942;53.196;6.592;2023-02-28T09:06:15;14.93;;;8.00;;
30127;SDS011;16942;53.196;6.592;2023-02-28T09:08:41;14.87;;;7.60;;
30127;SDS011;16942;53.196;6.592;2023-02-28T09:11:08;16.83;;;8.97;;
30127;SDS011;16942;53.196;6.592;2023-02-28T09:13:34;14.70;;;8.50;;
30127;SDS011;16942;53.196;6.592;2023-02-28T09:16:02;11.80;;;7.87;;
30127;SDS011;16942;53.196;6.592;2023-02-28T09:18:29;18.37;;;8.63;;
30127;SDS011;16942;53.196;6.592;2023-02-28T09:20:55;14.47;;;8.63;;
30127;SDS011;16942;53.196;6.592;2023-02-28T09:23:22;13.00;;;7.90;;
30127;SDS011;16942;53.196;6.592;2023-02-28T09:25:49;16.67;;;8.00;;
30127;SDS011;16942;53.196;6.592;2023-02-28T09:28:16;14.33;;;8.00;;
30127;SDS011;16942;53.196;6.592;2023-02-28T09:30:44;13.50;;;7.63;;
30127;SDS011;16942;53.196;6.592;2023-02-28T09:33:10;15.03;;;8.77;;
30127;SDS011;16942;53.196;6.592;2023-02-28T09:35:36;14.90;;;8.23;;
30127;SDS011;16942;53.196;6.592;2023-02-28T09:38:02;19.33;;;9.10;;
30127;SDS011;16942;53.196;6.592;2023-02-28T09:40:28;16.33;;;8.43;;
30127;SDS011;16942;53.196;6.592;2023-02-28T09:42:55;19.13;;;8.10;;
30127;SDS011;16942;53.196;6.592;2023-02-28T09:47:50;16.40;;;8.20;;
30127;SDS011;16942;53.196;6.592;2023-02-28T09:52:48;17.53;;;8.17;;
30127;SDS011;16942;53.196;6.592;2023-02-28T09:55:51;16.93;;;8.17;;
30127;SDS011;16942;53.196;6.592;2023-02-28T09:58:15;14.50;;;7.63;;
30127;SDS011;16942;53.196;6.592;2023-02-28T10:00:42;12.30;;;7.33;;
30127;SDS011;16942;53.196;6.592;2023-02-28T10:03:42;15.00;;;8.30;;
30127;SDS011;16942;53.196;6.592;2023-02-28T10:06:04;15.60;;;8.07;;
30127;SDS011;16942;53.196;6.592;2023-02-28T10:11:07;12.83;;;7.93;;
30127;SDS011;16942;53.196;6.592;2023-02-28T10:16:11;14.90;;;7.87;;
30127;SDS011;16942;53.196;6.592;2023-02-28T10:21:47;11.90;;;7.03;;
30127;SDS011;16942;53.196;6.592;2023-02-28T10:26:41;10.20;;;6.50;;
30127;SDS011;16942;53.196;6.592;2023-02-28T10:29:10;15.43;;;6.67;;
30127;SDS011;16942;53.196;6.592;2023-02-28T10:31:36;10.23;;;6.30;;
30127;SDS011;16942;53.196;6.592;2023-02-28T10:34:04;10.87;;;6.27;;
30127;SDS011;16942;53.196;6.592;2023-02-28T10:36:31;9.90;;;6.50;;
30127;SDS011;16942;53.196;6.592;2023-02-28T10:38:57;10.73;;;6.63;;
30127;SDS011;16942;53.196;6.592;2023-02-28T10:41:31;11.03;;;5.77;;
30127;SDS011;16942;53.196;6.592;2023-02-28T10:44:20;10.23;;;5.73;;
30127;SDS011;16942;53.196;6.592;2023-02-28T10:46:47;9.50;;;4.73;;
30127;SDS011;16942;53.196;6.592;2023-02-28T10:49:17;7.63;;;4.60;;
30127;SDS011;16942;53.196;6.592;2023-02-28T10:51:45;9.03;;;4.80;;
30127;SDS011;16942;53.196;6.592;2023-02-28T10:54:18;10.53;;;5.10;;
30127;SDS011;16942;53.196;6.592;2023-02-28T10:56:45;9.33;;;5.37;;
30127;SDS011;16942;53.196;6.592;2023-02-28T11:01:41;9.07;;;5.37;;
30127;SDS011;16942;53.196;6.592;2023-02-28T11:09:39;7.40;;;5.00;;
30127;SDS011;16942;53.196;6.592;2023-02-28T11:12:16;7.67;;;5.10;;
30127;SDS011;16942;53.196;6.592;2023-02-28T11:14:47;9.53;;;4.77;;
30127;SDS011;16942;53.196;6.592;2023-02-28T11:17:15;8.27;;;4.60;;
30127;SDS011;16942;53.196;6.592;2023-02-28T11:19:46;10.17;;;5.00;;
30127;SDS011;16942;53.196;6.592;2023-02-28T11:22:17;8.47;;;4.17;;
30127;SDS011;16942;53.196;6.592;2023-02-28T11:24:44;11.33;;;4.87;;
30127;SDS011;16942;53.196;6.592;2023-02-28T11:27:54;8.60;;;4.70;;
30127;SDS011;16942;53.196;6.592;2023-02-28T11:30:01;8.73;;;5.27;;
30127;SDS011;16942;53.196;6.592;2023-02-28T11:32:27;7.47;;;4.23;;
30127;SDS011;16942;53.196;6.592;2023-02-28T11:37:27;10.53;;;5.10;;
30127;SDS011;16942;53.196;6.592;2023-02-28T11:39:54;10.07;;;4.17;;
30127;SDS011;16942;53.196;6.592;2023-02-28T11:47:37;7.43;;;3.97;;
30127;SDS011;16942;53.196;6.592;2023-02-28T11:55:44;9.50;;;4.17;;
30127;SDS011;16942;53.196;6.592;2023-02-28T11:58:53;8.17;;;4.53;;
30127;SDS011;16942;53.196;6.592;2023-02-28T12:01:03;6.27;;;4.00;;
30127;SDS011;16942;53.196;6.592;2023-02-28T12:03:56;6.20;;;3.80;;
30127;SDS011;16942;53.196;6.592;2023-02-28T12:06:35;9.27;;;3.70;;
30127;SDS011;16942;53.196;6.592;2023-02-28T12:17:22;5.00;;;3.57;;
30127;SDS011;16942;53.196;6.592;2023-02-28T12:22:42;4.80;;;3.30;;
30127;SDS011;16942;53.196;6.592;2023-02-28T12:25:55;15.27;;;4.90;;
30127;SDS011;16942;53.196;6.592;2023-02-28T12:28:01;7.37;;;3.57;;
30127;SDS011;16942;53.196;6.592;2023-02-28T12:30:32;5.82;;;3.83;;
30127;SDS011;16942;53.196;6.592;2023-02-28T12:35:32;6.18;;;3.67;;
30127;SDS011;16942;53.196;6.592;2023-02-28T12:38:10;5.50;;;3.92;;
30127;SDS011;16942;53.196;6.592;2023-02-28T12:40:49;9.23;;;4.18;;
30127;SDS011;16942;53.196;6.592;2023-02-28T12:43:16;7.60;;;4.00;;
30127;SDS011;16942;53.196;6.592;2023-02-28T12:45:45;11.50;;;5.28;;
30127;SDS011;16942;53.196;6.592;2023-02-28T12:48:15;4.43;;;4.03;;
30127;SDS011;16942;53.196;6.592;2023-02-28T12:50:44;7.03;;;4.65;;
30127;SDS011;16942;53.196;6.592;2023-02-28T13:06:12;8.23;;;4.60;;
30127;SDS011;16942;53.196;6.592;2023-02-28T13:11:05;6.32;;;4.70;;
30127;SDS011;16942;53.196;6.592;2023-02-28T13:13:31;7.05;;;4.15;;
30127;SDS011;16942;53.196;6.592;2023-02-28T13:16:05;15.30;;;5.60;;
30127;SDS011;16942;53.196;6.592;2023-02-28T13:18:35;8.40;;;5.60;;
30127;SDS011;16942;53.196;6.592;2023-02-28T13:21:02;6.65;;;5.13;;
30127;SDS011;16942;53.196;6.592;2023-02-28T13:23:35;17.48;;;5.32;;
30127;SDS011;16942;53.196;6.592;2023-02-28T13:26:02;9.95;;;5.20;;
30127;SDS011;16942;53.196;6.592;2023-02-28T13:31:14;6.30;;;3.58;;
30127;SDS011;16942;53.196;6.592;2023-02-28T13:38:45;6.85;;;4.18;;
30127;SDS011;16942;53.196;6.592;2023-02-28T13:54:34;6.18;;;4.63;;
30127;SDS011;16942;53.196;6.592;2023-02-28T13:59:43;5.18;;;4.65;;
30127;SDS011;16942;53.196;6.592;2023-02-28T14:02:26;5.00;;;4.50;;
30127;SDS011;16942;53.196;6.592;2023-02-28T14:05:04;6.07;;;4.93;;
30127;SDS011;16942;53.196;6.592;2023-02-28T14:07:32;10.10;;;5.38;;
30127;SDS011;16942;53.196;6.592;2023-02-28T14:10:06;5.45;;;4.97;;
30127;SDS011;16942;53.196;6.592;2023-02-28T14:12:52;6.78;;;4.30;;
30127;SDS011;16942;53.196;6.592;2023-02-28T14:20:44;6.95;;;4.28;;
30127;SDS011;16942;53.196;6.592;2023-02-28T14:23:16;7.90;;;5.28;;
30127;SDS011;16942;53.196;6.592;2023-02-28T14:25:54;6.18;;;4.88;;
30127;SDS011;16942;53.196;6.592;2023-02-28T14:31:10;5.25;;;4.75;;
30127;SDS011;16942;53.196;6.592;2023-02-28T14:36:12;5.72;;;5.07;;
30127;SDS011;16942;53.196;6.592;2023-02-28T14:39:14;5.95;;;4.80;;
30127;SDS011;16942;53.196;6.592;2023-02-28T14:41:39;8.15;;;7.30;;
30127;SDS011;16942;53.196;6.592;2023-02-28T14:46:44;7.28;;;6.00;;
30127;SDS011;16942;53.196;6.592;2023-02-28T14:49:19;6.05;;;5.45;;
30127;SDS011;16942;53.196;6.592;2023-02-28T14:51:45;5.80;;;5.13;;
30127;SDS011;16942;53.196;6.592;2023-02-28T14:54:13;6.53;;;5.47;;
30127;SDS011;16942;53.196;6.592;2023-02-28T14:56:40;5.22;;;4.80;;
30127;SDS011;16942;53.196;6.592;2023-02-28T14:59:21;5.40;;;4.90;;
30127;SDS011;16942;53.196;6.592;2023-02-28T15:01:48;6.38;;;5.32;;
30127;SDS011;16942;53.196;6.592;2023-02-28T15:04:18;6.22;;;4.95;;
30127;SDS011;16942;53.196;6.592;2023-02-28T15:06:46;7.75;;;6.63;;
30127;SDS011;16942;53.196;6.592;2023-02-28T15:09:16;7.65;;;5.63;;
30127;SDS011;16942;53.196;6.592;2023-02-28T15:11:45;11.07;;;6.10;;
30127;SDS011;16942;53.196;6.592;2023-02-28T15:14:21;6.97;;;5.53;;
30127;SDS011;16942;53.196;6.592;2023-02-28T15:16:49;9.02;;;5.57;;
30127;SDS011;16942;53.196;6.592;2023-02-28T15:19:31;5.65;;;5.10;;
30127;SDS011;16942;53.196;6.592;2023-02-28T15:22:00;7.63;;;5.40;;
30127;SDS011;16942;53.196;6.592;2023-02-28T15:24:30;6.07;;;4.97;;
30127;SDS011;16942;53.196;6.592;2023-02-28T15:26:58;6.40;;;5.28;;
30127;SDS011;16942;53.196;6.592;2023-02-28T15:29:25;6.90;;;5.30;;
30127;SDS011;16942;53.196;6.592;2023-02-28T15:31:57;6.20;;;5.60;;
30127;SDS011;16942;53.196;6.592;2023-02-28T15:34:46;5.43;;;4.90;;
30127;SDS011;16942;53.196;6.592;2023-02-28T15:39:50;6.97;;;5.80;;
30127;SDS011;16942;53.196;6.592;2023-02-28T15:42:18;8.35;;;5.55;;
30127;SDS011;16942;53.196;6.592;2023-02-28T15:44:44;10.25;;;5.80;;
30127;SDS011;16942;53.196;6.592;2023-02-28T15:52:12;9.00;;;5.85;;
30127;SDS011;16942;53.196;6.592;2023-02-28T15:54:39;6.80;;;4.53;;
30127;SDS011;16942;53.196;6.592;2023-02-28T15:57:07;5.20;;;4.70;;
30127;SDS011;16942;53.196;6.592;2023-02-28T15:59:38;7.07;;;5.65;;
30127;SDS011;16942;53.196;6.592;2023-02-28T16:02:16;6.82;;;5.45;;
30127;SDS011;16942;53.196;6.592;2023-02-28T16:05:00;8.20;;;5.57;;
30127;SDS011;16942;53.196;6.592;2023-02-28T16:07:27;8.35;;;5.35;;
30127;SDS011;16942;53.196;6.592;2023-02-28T16:09:53;6.90;;;6.10;;
30127;SDS011;16942;53.196;6.592;2023-02-28T16:12:20;5.50;;;4.85;;
30127;SDS011;16942;53.196;6.592;2023-02-28T16:14:48;5.43;;;4.93;;
30127;SDS011;16942;53.196;6.592;2023-02-28T16:17:21;7.70;;;5.05;;
30127;SDS011;16942;53.196;6.592;2023-02-28T16:19:48;8.43;;;5.07;;
30127;SDS011;16942;53.196;6.592;2023-02-28T16:22:14;7.22;;;5.78;;
30127;SDS011;16942;53.196;6.592;2023-02-28T16:24:40;6.82;;;5.07;;
30127;SDS011;16942;53.196;6.592;2023-02-28T16:27:06;10.10;;;5.57;;
30127;SDS011;16942;53.196;6.592;2023-02-28T16:29:36;6.67;;;4.77;;
30127;SDS011;16942;53.196;6.592;2023-02-28T16:32:05;10.40;;;5.43;;
30127;SDS011;16942;53.196;6.592;2023-02-28T16:34:32;11.70;;;5.90;;
30127;SDS011;16942;53.196;6.592;2023-02-28T16:36:58;8.77;;;5.90;;
30127;SDS011;16942;53.196;6.592;2023-02-28T16:39:24;9.27;;;5.93;;
30127;SDS011;16942;53.196;6.592;2023-02-28T16:41:50;7.53;;;5.83;;
30127;SDS011;16942;53.196;6.592;2023-02-28T16:44:31;8.17;;;6.03;;
30127;SDS011;16942;53.196;6.592;2023-02-28T16:46:59;8.30;;;5.43;;
30127;SDS011;16942;53.196;6.592;2023-02-28T16:49:25;8.13;;;5.87;;
30127;SDS011;16942;53.196;6.592;2023-02-28T16:51:51;9.53;;;5.73;;
30127;SDS011;16942;53.196;6.592;2023-02-28T16:54:18;7.70;;;5.90;;
30127;SDS011;16942;53.196;6.592;2023-02-28T16:56:45;11.67;;;6.33;;
30127;SDS011;16942;53.196;6.592;2023-02-28T16:59:11;9.80;;;5.77;;
30127;SDS011;16942;53.196;6.592;2023-02-28T17:01:38;9.90;;;6.23;;
30127;SDS011;16942;53.196;6.592;2023-02-28T17:04:04;11.97;;;6.33;;
30127;SDS011;16942;53.196;6.592;2023-02-28T17:06:30;11.63;;;6.50;;
30127;SDS011;16942;53.196;6.592;2023-02-28T17:08:57;9.63;;;6.43;;